createdAt,value
2022-12-19T00:01:21.045Z,20.91
2022-12-19T00:03:59.565Z,20.78
2022-12-19T00:06:27.453Z,20.72
2022-12-19T00:08:55.585Z,20.73
2022-12-19T00:11:24.523Z,20.73
2022-12-19T00:13:51.624Z,20.80
2022-12-19T00:16:21.033Z,20.69
2022-12-19T00:18:49.202Z,20.79
2022-12-19T00:21:17.813Z,20.73
2022-12-19T00:23:45.370Z,20.75
2022-12-19T00:26:22.163Z,20.68
2022-12-19T00:28:51.960Z,20.71
2022-12-19T00:31:19.806Z,20.72
2022-12-19T00:33:47.608Z,20.77
2022-12-19T00:36:22.417Z,20.82
2022-12-19T00:38:51.390Z,20.90
2022-12-19T00:41:22.643Z,20.73
2022-12-19T00:43:53.884Z,20.69
2022-12-19T00:46:20.737Z,20.47
2022-12-19T00:48:47.691Z,20.31
2022-12-19T00:51:17.468Z,20.16
2022-12-19T00:53:45.314Z,20.10
2022-12-19T00:56:15.759Z,20.04
2022-12-19T00:58:46.848Z,19.93
2022-12-19T01:01:23.587Z,19.86
2022-12-19T01:04:25.934Z,19.79
2022-12-19T01:06:37.503Z,19.68
2022-12-19T01:09:04.341Z,19.66
2022-12-19T01:11:49.496Z,19.61
2022-12-19T01:14:22.325Z,19.56
2022-12-19T01:16:50.512Z,19.59
2022-12-19T01:19:17.163Z,19.57
2022-12-19T01:21:43.748Z,19.57
2022-12-19T01:24:10.741Z,19.56
2022-12-19T01:26:37.554Z,19.56
2022-12-19T01:29:04.910Z,19.56
2022-12-19T01:31:32.626Z,19.52
2022-12-19T01:34:00.549Z,19.50
2022-12-19T01:36:28.814Z,19.51
2022-12-19T01:38:58.600Z,19.51
2022-12-19T01:41:25.590Z,19.50
2022-12-19T01:44:00.692Z,19.51
2022-12-19T01:46:41.657Z,19.49
2022-12-19T01:49:16.135Z,19.47
2022-12-19T01:51:47.054Z,19.46
2022-12-19T01:54:19.710Z,19.38
2022-12-19T01:56:55.946Z,19.39
2022-12-19T01:59:29.574Z,19.36
2022-12-19T02:02:03.266Z,19.37
2022-12-19T02:04:32.279Z,19.35
2022-12-19T02:07:01.066Z,19.31
2022-12-19T02:09:34.764Z,19.29
2022-12-19T02:12:01.757Z,19.28
2022-12-19T02:14:28.909Z,19.27
2022-12-19T02:17:22.112Z,19.27
2022-12-19T02:19:57.571Z,19.26
2022-12-19T02:22:49.840Z,19.23
2022-12-19T02:25:28.347Z,19.27
2022-12-19T02:28:03.626Z,19.24
2022-12-19T02:30:54.421Z,19.23
2022-12-19T02:33:39.204Z,19.24
2022-12-19T02:36:16.655Z,19.21
2022-12-19T02:38:59.334Z,19.22
2022-12-19T02:41:43.325Z,19.19
2022-12-19T02:44:17.898Z,19.20
2022-12-19T02:46:46.483Z,19.14
2022-12-19T02:49:16.598Z,19.13
2022-12-19T02:51:47.895Z,19.10
2022-12-19T02:54:15.636Z,19.12
2022-12-19T02:57:00.895Z,19.15
2022-12-19T02:59:49.322Z,19.12
2022-12-19T03:02:50.462Z,19.12
2022-12-19T03:05:41.349Z,19.06
2022-12-19T03:08:16.469Z,19.09
2022-12-19T03:11:01.478Z,19.08
2022-12-19T03:13:55.708Z,19.12
2022-12-19T03:16:23.056Z,19.08
2022-12-19T03:18:49.915Z,19.09
2022-12-19T03:21:37.141Z,19.09
2022-12-19T03:24:05.338Z,19.03
2022-12-19T03:26:37.848Z,19.07
2022-12-19T03:29:28.487Z,19.07
2022-12-19T03:31:57.086Z,19.00
2022-12-19T03:34:41.401Z,19.01
2022-12-19T03:37:15.069Z,19.02
2022-12-19T03:39:45.800Z,18.99
2022-12-19T03:42:33.642Z,18.98
2022-12-19T03:45:03.424Z,18.99
2022-12-19T03:47:45.023Z,18.91
2022-12-19T03:50:11.764Z,18.91
2022-12-19T03:53:24.967Z,18.99
2022-12-19T03:56:04.595Z,19.00
2022-12-19T03:58:37.168Z,18.97
2022-12-19T04:01:04.939Z,19.00
2022-12-19T04:03:32.155Z,18.95
2022-12-19T04:06:01.958Z,18.95
2022-12-19T04:08:31.311Z,19.00
2022-12-19T04:11:05.228Z,19.01
2022-12-19T04:13:40.111Z,19.03
2022-12-19T04:16:09.684Z,18.97
2022-12-19T04:18:38.172Z,18.94
2022-12-19T04:21:20.255Z,18.99
2022-12-19T04:23:52.994Z,18.94
2022-12-19T04:26:21.217Z,18.95
2022-12-19T04:28:53.038Z,18.91
2022-12-19T04:31:21.163Z,18.92
2022-12-19T04:33:47.877Z,18.91
2022-12-19T04:36:14.550Z,18.91
2022-12-19T04:38:41.646Z,18.94
2022-12-19T04:41:08.298Z,18.90
2022-12-19T04:43:34.887Z,18.91
2022-12-19T04:46:01.614Z,18.88
2022-12-19T04:48:28.255Z,18.91
2022-12-19T04:50:56.284Z,18.94
2022-12-19T04:53:22.907Z,18.92
2022-12-19T04:55:49.463Z,18.95
2022-12-19T04:58:21.490Z,18.94
2022-12-19T05:00:48.565Z,18.97
2022-12-19T05:03:15.260Z,18.89
2022-12-19T05:05:41.871Z,18.90
2022-12-19T05:08:08.836Z,18.92
2022-12-19T05:10:36.872Z,18.95
2022-12-19T05:13:03.789Z,18.88
2022-12-19T05:15:30.367Z,18.89
2022-12-19T05:17:57.583Z,18.88
2022-12-19T05:20:24.133Z,18.90
2022-12-19T05:22:50.715Z,18.92
2022-12-19T05:25:17.295Z,18.90
2022-12-19T05:27:44.020Z,18.86
2022-12-19T05:30:11.341Z,18.90
2022-12-19T05:32:37.896Z,18.87
2022-12-19T05:35:04.759Z,18.85
2022-12-19T05:37:31.321Z,18.86
2022-12-19T05:39:57.889Z,18.88
2022-12-19T05:42:26.214Z,18.88
2022-12-19T05:44:52.795Z,18.88
2022-12-19T05:47:21.152Z,18.91
2022-12-19T05:49:47.711Z,18.87
2022-12-19T05:52:14.279Z,18.89
2022-12-19T05:54:40.909Z,18.91
2022-12-19T05:57:07.475Z,18.90
2022-12-19T05:59:34.027Z,18.92
2022-12-19T06:02:00.732Z,18.92
2022-12-19T06:04:27.427Z,18.91
2022-12-19T06:06:54.484Z,18.91
2022-12-19T06:09:21.096Z,18.92
2022-12-19T06:11:48.082Z,18.89
2022-12-19T06:14:14.671Z,18.89
2022-12-19T06:16:41.348Z,18.95
2022-12-19T06:19:08.908Z,18.91
2022-12-19T06:21:35.528Z,18.89
2022-12-19T06:24:02.220Z,18.90
2022-12-19T06:26:28.800Z,18.89
2022-12-19T06:28:56.013Z,18.87
2022-12-19T06:31:24.708Z,18.91
2022-12-19T06:33:52.060Z,18.91
2022-12-19T06:36:28.167Z,18.91
2022-12-19T06:38:57.893Z,18.90
2022-12-19T06:41:43.739Z,18.91
2022-12-19T06:44:14.112Z,18.95
2022-12-19T06:46:41.850Z,18.89
2022-12-19T06:49:09.487Z,18.88
2022-12-19T06:51:36.142Z,18.92
2022-12-19T06:54:03.320Z,18.96
2022-12-19T06:56:37.983Z,19.05
2022-12-19T06:59:05.885Z,19.08
2022-12-19T07:01:38.627Z,19.09
2022-12-19T07:04:06.823Z,19.07
2022-12-19T07:06:33.399Z,19.10
2022-12-19T07:09:00.105Z,19.16
2022-12-19T07:11:27.936Z,19.21
2022-12-19T07:13:54.527Z,19.23
2022-12-19T07:16:21.121Z,19.20
2022-12-19T07:18:47.775Z,19.16
2022-12-19T07:21:14.430Z,19.21
2022-12-19T07:23:41.457Z,19.21
2022-12-19T07:26:08.629Z,19.17
2022-12-19T07:28:36.818Z,19.16
2022-12-19T07:31:03.882Z,19.13
2022-12-19T07:33:30.501Z,19.14
2022-12-19T07:35:57.099Z,19.16
2022-12-19T07:38:23.818Z,19.12
2022-12-19T07:40:50.546Z,19.14
2022-12-19T07:43:17.164Z,19.08
2022-12-19T07:45:43.871Z,19.14
2022-12-19T07:48:10.619Z,19.13
2022-12-19T07:50:37.225Z,19.10
2022-12-19T07:53:04.030Z,19.15
2022-12-19T07:55:30.737Z,19.17
2022-12-19T07:57:57.453Z,19.14
2022-12-19T08:00:24.302Z,19.14
2022-12-19T08:02:50.989Z,19.18
2022-12-19T08:05:17.852Z,19.20
2022-12-19T08:07:44.977Z,19.20
2022-12-19T08:10:12.683Z,19.19
2022-12-19T08:12:39.384Z,19.22
2022-12-19T08:15:06.530Z,19.22
2022-12-19T08:17:34.859Z,19.19
2022-12-19T08:20:01.669Z,19.20
2022-12-19T08:22:30.208Z,19.24
2022-12-19T08:24:57.739Z,19.20
2022-12-19T08:27:24.729Z,19.22
2022-12-19T08:29:51.795Z,19.23
2022-12-19T08:32:21.566Z,19.23
2022-12-19T08:34:49.366Z,19.24
2022-12-19T08:37:15.998Z,19.21
2022-12-19T08:39:42.961Z,19.22
2022-12-19T08:42:09.633Z,19.22
2022-12-19T08:44:36.216Z,19.30
2022-12-19T08:47:02.917Z,19.35
2022-12-19T08:49:29.714Z,19.28
2022-12-19T08:51:56.319Z,19.39
2022-12-19T08:54:23.052Z,19.42
2022-12-19T08:56:49.779Z,19.41
2022-12-19T08:59:28.699Z,19.41
2022-12-19T09:02:02.032Z,19.44
2022-12-19T09:05:11.776Z,19.40
2022-12-19T09:07:16.651Z,19.39
2022-12-19T09:09:44.610Z,19.32
2022-12-19T09:12:13.050Z,19.34
2022-12-19T09:14:39.705Z,19.28
2022-12-19T09:17:06.355Z,19.23
2022-12-19T09:19:33.132Z,19.19
2022-12-19T09:21:59.701Z,19.21
2022-12-19T09:24:26.402Z,19.16
2022-12-19T09:26:53.134Z,19.21
2022-12-19T09:29:21.842Z,19.21
2022-12-19T09:31:51.801Z,19.32
2022-12-19T09:34:22.941Z,19.32
2022-12-19T09:36:50.991Z,19.34
2022-12-19T09:39:18.476Z,19.33
2022-12-19T09:42:05.507Z,19.39
2022-12-19T09:44:41.102Z,19.42
2022-12-19T09:47:14.754Z,19.41
2022-12-19T09:49:47.505Z,19.39
2022-12-19T09:52:22.887Z,19.46
2022-12-19T09:55:03.279Z,19.40
2022-12-19T09:57:40.637Z,19.37
2022-12-19T10:00:13.571Z,19.33
2022-12-19T10:02:43.208Z,19.32
2022-12-19T10:05:31.112Z,19.24
2022-12-19T10:08:10.359Z,19.23
2022-12-19T10:12:39.325Z,19.21
2022-12-19T10:14:23.556Z,19.27
2022-12-19T10:17:29.381Z,19.20
2022-12-19T10:20:17.635Z,19.21
2022-12-19T10:23:05.609Z,19.26
2022-12-19T10:25:54.201Z,19.26
2022-12-19T10:28:33.028Z,19.28
2022-12-19T10:31:21.459Z,19.28
2022-12-19T10:34:22.570Z,19.27
2022-12-19T10:39:56.913Z,19.30
2022-12-19T10:42:41.596Z,19.33
2022-12-19T10:45:36.599Z,19.31
2022-12-19T10:48:04.689Z,19.38
2022-12-19T10:50:31.383Z,19.41
2022-12-19T10:53:11.443Z,19.45
2022-12-19T10:55:40.427Z,19.46
2022-12-19T10:58:24.257Z,19.46
2022-12-19T11:01:01.066Z,19.39
2022-12-19T11:03:28.234Z,19.42
2022-12-19T11:05:58.704Z,19.40
2022-12-19T11:08:29.533Z,19.41
2022-12-19T11:12:37.457Z,19.42
2022-12-19T11:18:54.269Z,19.45
2022-12-19T11:21:20.015Z,19.50
2022-12-19T11:29:16.121Z,19.54
2022-12-19T11:29:38.944Z,19.66
2022-12-19T11:29:40.284Z,19.55
2022-12-19T11:30:25.641Z,19.59
2022-12-19T11:34:06.811Z,19.56
2022-12-19T11:36:36.006Z,19.51
2022-12-19T11:39:04.289Z,19.45
2022-12-19T11:41:37.364Z,19.45
2022-12-19T11:44:28.003Z,19.32
2022-12-19T11:47:11.080Z,19.38
2022-12-19T11:49:50.192Z,19.40
2022-12-19T11:53:09.972Z,19.35
2022-12-19T11:55:54.501Z,19.29
2022-12-19T11:58:23.970Z,19.31
2022-12-19T12:01:16.162Z,19.28
2022-12-19T12:04:09.130Z,19.31
2022-12-19T12:06:45.694Z,19.31
2022-12-19T12:12:15.691Z,19.31
2022-12-19T12:20:46.234Z,19.27
2022-12-19T12:31:05.267Z,19.23
2022-12-19T12:31:08.447Z,19.23
2022-12-19T12:31:29.546Z,19.20
2022-12-19T12:31:49.210Z,19.22
2022-12-19T12:32:04.827Z,19.23
2022-12-19T12:35:38.456Z,19.24
2022-12-19T12:37:15.816Z,19.19
2022-12-19T12:38:25.602Z,19.16
2022-12-19T12:40:56.109Z,19.15
2022-12-19T12:43:41.094Z,19.15
2022-12-19T12:46:15.369Z,19.17
2022-12-19T12:48:51.982Z,19.21
2022-12-19T12:51:18.909Z,19.18
2022-12-19T12:53:48.523Z,19.19
2022-12-19T12:56:17.947Z,19.14
2022-12-19T12:58:48.404Z,19.30
2022-12-19T13:01:17.031Z,19.32
2022-12-19T13:03:53.907Z,19.39
2022-12-19T13:06:37.271Z,19.39
2022-12-19T13:09:09.539Z,19.38
2022-12-19T13:12:03.689Z,19.43
2022-12-19T13:14:42.735Z,19.45
2022-12-19T13:17:45.222Z,19.41
2022-12-19T13:20:19.020Z,19.33
2022-12-19T13:23:04.757Z,19.41
2022-12-19T13:25:34.238Z,19.45
2022-12-19T13:28:03.518Z,19.45
2022-12-19T13:31:12.027Z,19.50
2022-12-19T13:33:22.002Z,19.43
2022-12-19T13:39:25.354Z,19.44
2022-12-19T13:39:59.747Z,19.47
2022-12-19T13:41:59.969Z,19.39
2022-12-19T13:44:26.958Z,19.35
2022-12-19T13:46:55.520Z,19.32
2022-12-19T13:49:25.115Z,19.38
2022-12-19T13:51:57.630Z,19.33
2022-12-19T13:54:34.738Z,19.32
2022-12-19T13:57:07.601Z,19.30
2022-12-19T13:59:39.898Z,19.30
2022-12-19T14:02:15.983Z,19.31
2022-12-19T14:04:45.269Z,19.31
2022-12-19T14:07:37.598Z,19.30
2022-12-19T14:11:33.768Z,19.31
2022-12-19T14:14:00.950Z,19.27
2022-12-19T14:16:16.506Z,19.30
2022-12-19T14:18:49.496Z,19.33
2022-12-19T14:22:03.851Z,19.38
2022-12-19T14:24:16.690Z,19.31
2022-12-19T14:28:23.895Z,19.30
2022-12-19T14:30:28.858Z,19.26
2022-12-19T14:33:39.753Z,19.25
2022-12-19T14:36:07.600Z,19.24
2022-12-19T14:39:25.535Z,19.24
2022-12-19T14:41:07.562Z,19.21
2022-12-19T14:43:59.340Z,19.20
2022-12-19T14:53:08.701Z,19.19
2022-12-19T14:54:08.903Z,19.20
2022-12-19T14:54:32.218Z,19.19
2022-12-19T14:56:16.906Z,19.17
2022-12-19T14:58:55.463Z,19.17
2022-12-19T15:01:37.177Z,19.17
2022-12-19T15:04:49.547Z,19.16
2022-12-19T15:07:06.620Z,19.19
2022-12-19T15:11:07.400Z,19.20
2022-12-19T15:14:47.192Z,19.18
2022-12-19T15:16:06.338Z,19.18
2022-12-19T15:18:33.129Z,19.20
2022-12-19T15:21:01.982Z,19.21
2022-12-19T15:23:29.605Z,19.25
2022-12-19T15:26:04.048Z,19.24
2022-12-19T15:28:40.405Z,19.31
2022-12-19T15:31:19.580Z,19.29
2022-12-19T15:34:07.110Z,19.29
2022-12-19T15:36:32.784Z,19.26
2022-12-19T15:38:59.418Z,19.30
2022-12-19T15:41:26.017Z,19.24
2022-12-19T15:44:03.664Z,19.28
2022-12-19T15:46:31.834Z,19.28
2022-12-19T15:48:58.497Z,19.30
2022-12-19T15:51:25.071Z,19.28
2022-12-19T15:53:51.688Z,19.28
2022-12-19T15:56:26.911Z,19.30
2022-12-19T15:58:56.154Z,19.28
2022-12-19T16:01:23.472Z,19.29
2022-12-19T16:03:50.537Z,19.25
2022-12-19T16:06:17.484Z,19.26
2022-12-19T16:08:44.067Z,19.25
2022-12-19T16:11:24.448Z,19.27
2022-12-19T16:13:55.043Z,19.28
2022-12-19T16:16:22.046Z,19.27
2022-12-19T16:18:48.855Z,19.30
2022-12-19T16:21:19.576Z,19.33
2022-12-19T16:23:46.710Z,19.30
2022-12-19T16:26:33.456Z,19.39
2022-12-19T16:29:00.915Z,19.36
2022-12-19T16:31:27.879Z,19.39
2022-12-19T16:33:55.203Z,19.40
2022-12-19T16:36:22.074Z,19.39
2022-12-19T16:38:48.684Z,19.40
2022-12-19T16:41:21.986Z,19.39
2022-12-19T16:43:48.962Z,19.41
2022-12-19T16:46:19.473Z,19.41
2022-12-19T16:48:46.828Z,19.44
2022-12-19T16:51:22.017Z,19.46
2022-12-19T16:53:50.710Z,19.49
2022-12-19T16:56:27.530Z,19.47
2022-12-19T16:58:55.874Z,19.43
2022-12-19T17:01:22.591Z,19.41
2022-12-19T17:03:49.385Z,19.41
2022-12-19T17:06:18.311Z,19.41
2022-12-19T17:08:46.235Z,19.37
2022-12-19T17:11:28.176Z,19.38
2022-12-19T17:14:05.091Z,19.33
2022-12-19T17:16:32.245Z,19.32
2022-12-19T17:18:59.203Z,19.33
2022-12-19T17:21:25.855Z,19.27
2022-12-19T17:23:52.527Z,19.28
2022-12-19T17:26:19.129Z,19.30
2022-12-19T17:28:49.016Z,19.30
2022-12-19T17:31:28.384Z,19.32
2022-12-19T17:33:57.980Z,19.29
2022-12-19T17:36:32.727Z,19.28
2022-12-19T17:39:03.129Z,19.30
2022-12-19T17:41:30.676Z,19.25
2022-12-19T17:43:57.365Z,19.27
2022-12-19T17:46:24.994Z,19.24
2022-12-19T17:48:53.466Z,19.27
2022-12-19T17:51:22.906Z,19.28
2022-12-19T17:53:50.066Z,19.29
2022-12-19T17:56:19.033Z,19.28
2022-12-19T17:58:45.956Z,19.26
2022-12-19T18:01:24.141Z,19.30
2022-12-19T18:03:53.701Z,19.27
2022-12-19T18:06:20.894Z,19.27
2022-12-19T18:08:47.631Z,19.24
2022-12-19T18:11:26.160Z,19.22
2022-12-19T18:13:53.721Z,19.27
2022-12-19T18:16:25.702Z,19.27
2022-12-19T18:18:52.441Z,19.28
2022-12-19T18:21:22.299Z,19.29
2022-12-19T18:23:48.953Z,19.30
2022-12-19T18:26:16.047Z,19.32
2022-12-19T18:28:42.870Z,19.32
2022-12-19T18:31:25.606Z,19.30
2022-12-19T18:33:54.548Z,19.33
2022-12-19T18:36:27.446Z,19.31
2022-12-19T18:38:55.165Z,19.32
2022-12-19T18:41:22.497Z,19.27
2022-12-19T18:43:49.757Z,19.32
2022-12-19T18:46:19.713Z,19.33
2022-12-19T18:48:46.436Z,19.33
2022-12-19T18:51:20.983Z,19.36
2022-12-19T18:53:49.113Z,19.32
2022-12-19T18:56:16.149Z,19.36
2022-12-19T18:58:42.863Z,19.36
2022-12-19T19:01:27.438Z,19.39
2022-12-19T19:03:56.803Z,19.37
2022-12-19T19:06:31.009Z,19.38
2022-12-19T19:09:01.212Z,19.34
2022-12-19T19:11:28.624Z,19.35
2022-12-19T19:13:55.334Z,19.33
2022-12-19T19:16:24.979Z,19.37
2022-12-19T19:18:58.772Z,19.38
2022-12-19T19:21:29.959Z,19.35
2022-12-19T19:24:28.764Z,19.37
2022-12-19T19:26:55.791Z,19.38
2022-12-19T19:29:22.394Z,19.35
2022-12-19T19:31:51.881Z,19.39
2022-12-19T19:34:24.410Z,19.39
2022-12-19T19:36:54.747Z,19.38
2022-12-19T19:39:22.999Z,19.39
2022-12-19T19:41:49.692Z,19.40
2022-12-19T19:44:16.291Z,19.37
2022-12-19T19:46:43.127Z,19.42
2022-12-19T19:49:09.768Z,19.40
2022-12-19T19:51:36.339Z,19.41
2022-12-19T19:54:02.955Z,19.39
2022-12-19T19:56:29.546Z,19.41
2022-12-19T19:58:59.644Z,19.40
2022-12-19T20:01:26.650Z,19.43
2022-12-19T20:03:53.403Z,19.41
2022-12-19T20:06:20.141Z,19.39
2022-12-19T20:08:46.806Z,19.41
2022-12-19T20:11:13.737Z,19.42
2022-12-19T20:13:40.336Z,19.41
2022-12-19T20:16:10.139Z,19.41
2022-12-19T20:18:38.681Z,19.40
2022-12-19T20:21:12.692Z,19.42
2022-12-19T20:23:42.676Z,19.38
2022-12-19T20:26:11.292Z,19.39
2022-12-19T20:28:43.716Z,19.42
2022-12-19T20:31:14.281Z,19.39
2022-12-19T20:33:41.263Z,19.39
2022-12-19T20:36:10.870Z,19.39
2022-12-19T20:38:38.168Z,19.37
2022-12-19T20:41:04.979Z,19.41
2022-12-19T20:43:31.906Z,19.43
2022-12-19T20:46:21.628Z,19.43
2022-12-19T20:48:49.284Z,19.38
2022-12-19T20:51:17.246Z,19.37
2022-12-19T20:53:44.304Z,19.32
2022-12-19T20:56:16.806Z,19.33
2022-12-19T20:58:43.797Z,19.34
2022-12-19T21:01:16.700Z,19.29
2022-12-19T21:03:44.477Z,19.32
2022-12-19T21:06:14.150Z,19.40
2022-12-19T21:08:41.821Z,19.32
2022-12-19T21:11:09.734Z,19.38
2022-12-19T21:13:37.290Z,19.41
2022-12-19T21:16:09.073Z,19.42
2022-12-19T21:18:37.817Z,19.45
2022-12-19T21:21:05.518Z,19.41
2022-12-19T21:23:32.466Z,19.45
2022-12-19T21:26:01.342Z,19.45
2022-12-19T21:28:28.979Z,19.43
2022-12-19T21:31:01.423Z,19.42
2022-12-19T21:33:28.089Z,19.38
2022-12-19T21:35:55.134Z,19.40
2022-12-19T21:38:22.396Z,19.38
2022-12-19T21:40:49.274Z,19.35
2022-12-19T21:43:16.320Z,19.37
2022-12-19T21:45:42.871Z,19.35
2022-12-19T21:48:09.679Z,19.39
2022-12-19T21:50:36.257Z,19.37
2022-12-19T21:53:02.869Z,19.38
2022-12-19T21:55:29.593Z,19.39
2022-12-19T21:57:56.245Z,19.39
2022-12-19T22:00:23.021Z,19.34
2022-12-19T22:03:11.983Z,19.35
2022-12-19T22:05:36.417Z,19.31
2022-12-19T22:08:03.008Z,19.31
2022-12-19T22:10:29.841Z,19.31
2022-12-19T22:12:56.408Z,19.33
2022-12-19T22:15:23.008Z,19.29
2022-12-19T22:17:49.783Z,19.29
2022-12-19T22:20:16.418Z,19.35
2022-12-19T22:22:42.978Z,19.33
2022-12-19T22:25:09.747Z,19.35
2022-12-19T22:27:36.782Z,19.37
2022-12-19T22:30:08.790Z,19.38
2022-12-19T22:32:37.368Z,19.42
2022-12-19T22:35:04.249Z,19.42
2022-12-19T22:37:30.872Z,19.43
2022-12-19T22:40:00.141Z,19.41
2022-12-19T22:42:27.930Z,19.38
2022-12-19T22:44:54.649Z,19.38
2022-12-19T22:47:21.680Z,19.31
2022-12-19T22:49:52.035Z,19.39
2022-12-19T22:52:19.090Z,19.38
2022-12-19T22:54:45.633Z,19.35
2022-12-19T22:57:12.482Z,19.32
2022-12-19T22:59:39.994Z,19.56
2022-12-19T23:02:06.702Z,19.87
2022-12-19T23:04:33.596Z,20.18
2022-12-19T23:07:00.344Z,20.45
2022-12-19T23:09:27.614Z,20.63
2022-12-19T23:11:55.369Z,20.78
2022-12-19T23:14:22.007Z,20.92
2022-12-19T23:16:49.223Z,21.04
2022-12-19T23:19:16.908Z,21.18
2022-12-19T23:21:43.633Z,21.22
2022-12-19T23:24:11.374Z,21.13
2022-12-19T23:26:38.974Z,21.30
2022-12-19T23:29:11.471Z,21.32
2022-12-19T23:31:43.909Z,21.41
2022-12-19T23:34:10.799Z,21.43
2022-12-19T23:37:09.791Z,21.47
2022-12-19T23:39:24.522Z,21.43
2022-12-19T23:41:51.171Z,21.49
2022-12-19T23:44:18.072Z,21.43
2022-12-19T23:46:44.657Z,21.41
2022-12-19T23:49:11.252Z,21.38
2022-12-19T23:51:38.035Z,21.35
2022-12-19T23:54:05.041Z,21.28
2022-12-19T23:56:32.607Z,21.16
2022-12-19T23:58:59.695Z,21.17
